createdAt,value
2022-11-07T00:00:32.834Z,15.70
2022-11-07T00:02:59.426Z,15.70
2022-11-07T00:05:25.956Z,15.70
2022-11-07T00:07:52.426Z,15.60
2022-11-07T00:10:18.912Z,15.60
2022-11-07T00:12:45.395Z,15.70
2022-11-07T00:15:11.886Z,15.80
2022-11-07T00:17:38.359Z,15.80
2022-11-07T00:20:04.847Z,15.70
2022-11-07T00:22:31.346Z,15.80
2022-11-07T00:24:57.838Z,15.80
2022-11-07T00:27:24.514Z,15.70
2022-11-07T00:29:51.034Z,15.60
2022-11-07T00:32:17.525Z,15.70
2022-11-07T00:34:43.993Z,15.80
2022-11-07T00:37:10.486Z,15.80
2022-11-07T00:39:36.986Z,15.80
2022-11-07T00:42:03.578Z,15.90
2022-11-07T00:44:30.056Z,15.80
2022-11-07T00:46:56.521Z,15.80
2022-11-07T00:49:22.992Z,15.70
2022-11-07T00:51:49.458Z,15.80
2022-11-07T00:54:15.927Z,15.70
2022-11-07T00:56:42.400Z,15.80
2022-11-07T00:59:08.875Z,15.80
2022-11-07T01:01:35.494Z,15.90
2022-11-07T01:04:02.078Z,15.80
2022-11-07T01:06:28.541Z,15.80
2022-11-07T01:08:55.030Z,15.80
2022-11-07T01:11:21.530Z,15.80
2022-11-07T01:13:48.011Z,15.70
2022-11-07T01:16:14.495Z,15.70
2022-11-07T01:18:40.991Z,15.70
2022-11-07T01:21:09.797Z,15.70
2022-11-07T01:23:40.138Z,15.60
2022-11-07T01:26:06.605Z,15.70
2022-11-07T01:28:33.090Z,15.80
2022-11-07T01:30:59.571Z,15.70
2022-11-07T01:33:26.050Z,15.60
2022-11-07T01:35:52.523Z,15.70
2022-11-07T01:38:19.001Z,15.80
2022-11-07T01:40:45.495Z,15.70
2022-11-07T01:43:12.244Z,15.60
2022-11-07T01:45:38.948Z,15.70
2022-11-07T01:48:05.433Z,15.70
2022-11-07T01:50:31.924Z,15.70
2022-11-07T01:52:58.394Z,15.70
2022-11-07T01:55:24.892Z,15.60
2022-11-07T01:57:51.359Z,15.60
2022-11-07T02:00:17.853Z,15.70
2022-11-07T02:02:44.472Z,15.70
2022-11-07T02:05:11.069Z,15.60
2022-11-07T02:07:37.546Z,15.50
2022-11-07T02:10:04.072Z,15.60
2022-11-07T02:12:30.572Z,15.60
2022-11-07T02:14:57.070Z,15.70
2022-11-07T02:17:23.574Z,15.70
2022-11-07T02:19:50.063Z,15.60
2022-11-07T02:22:16.560Z,15.70
2022-11-07T02:24:43.044Z,15.60
2022-11-07T02:27:09.533Z,15.70
2022-11-07T02:29:36.000Z,15.80
2022-11-07T02:32:02.488Z,15.70
2022-11-07T02:34:28.968Z,15.70
2022-11-07T02:36:55.480Z,15.70
2022-11-07T02:39:21.969Z,15.60
2022-11-07T02:41:48.453Z,15.60
2022-11-07T02:44:14.939Z,15.70
2022-11-07T02:46:41.426Z,15.70
2022-11-07T02:49:07.894Z,15.70
2022-11-07T02:51:34.376Z,15.60
2022-11-07T02:54:00.859Z,15.60
2022-11-07T02:56:27.399Z,15.60
2022-11-07T02:58:53.873Z,15.70
2022-11-07T03:01:20.401Z,15.70
2022-11-07T03:03:46.918Z,15.80
2022-11-07T03:06:13.396Z,15.70
2022-11-07T03:08:39.873Z,15.70
2022-11-07T03:11:06.364Z,15.70
2022-11-07T03:13:32.858Z,15.70
2022-11-07T03:15:59.352Z,15.70
2022-11-07T03:18:25.813Z,15.60
2022-11-07T03:20:52.291Z,15.50
2022-11-07T03:23:18.782Z,15.60
2022-11-07T03:25:45.258Z,15.60
2022-11-07T03:28:11.722Z,15.60
2022-11-07T03:30:38.207Z,15.60
2022-11-07T03:33:04.685Z,15.60
2022-11-07T03:35:31.158Z,15.60
2022-11-07T03:37:57.638Z,15.60
2022-11-07T03:40:24.129Z,15.60
2022-11-07T03:42:50.612Z,15.70
2022-11-07T03:45:17.102Z,15.60
2022-11-07T03:47:43.568Z,15.60
2022-11-07T03:50:10.066Z,15.60
2022-11-07T03:52:36.526Z,15.70
2022-11-07T03:55:03.011Z,15.70
2022-11-07T03:57:29.499Z,15.70
2022-11-07T03:59:55.961Z,15.70
2022-11-07T04:02:22.537Z,15.60
2022-11-07T04:04:49.092Z,15.70
2022-11-07T04:07:15.559Z,15.70
2022-11-07T04:09:42.044Z,15.70
2022-11-07T04:12:08.542Z,15.60
2022-11-07T04:14:35.024Z,15.50
2022-11-07T04:17:01.507Z,15.60
2022-11-07T04:19:27.991Z,15.60
2022-11-07T04:21:54.481Z,15.60
2022-11-07T04:24:20.967Z,15.70
2022-11-07T04:26:47.444Z,15.70
2022-11-07T04:29:13.925Z,15.70
2022-11-07T04:31:40.416Z,15.60
2022-11-07T04:34:06.889Z,15.60
2022-11-07T04:36:33.361Z,15.50
2022-11-07T04:38:59.826Z,15.60
2022-11-07T04:41:26.305Z,15.70
2022-11-07T04:43:52.786Z,15.70
2022-11-07T04:46:19.254Z,15.80
2022-11-07T04:48:45.751Z,15.70
2022-11-07T04:51:12.257Z,15.70
2022-11-07T04:53:38.734Z,15.70
2022-11-07T04:56:05.208Z,15.80
2022-11-07T04:58:31.687Z,15.70
2022-11-07T05:00:58.165Z,15.60
2022-11-07T05:03:24.660Z,15.60
2022-11-07T05:05:51.138Z,15.50
2022-11-07T05:08:17.627Z,15.60
2022-11-07T05:10:44.135Z,15.70
2022-11-07T05:13:10.599Z,15.70
2022-11-07T05:15:37.083Z,15.70
2022-11-07T05:18:03.558Z,15.60
2022-11-07T05:20:30.065Z,15.60
2022-11-07T05:22:56.621Z,15.60
2022-11-07T05:25:23.154Z,15.60
2022-11-07T05:27:49.636Z,15.60
2022-11-07T05:30:16.114Z,15.60
2022-11-07T05:32:42.603Z,15.60
2022-11-07T05:35:09.089Z,15.70
2022-11-07T05:37:35.567Z,15.70
2022-11-07T05:40:02.048Z,15.70
2022-11-07T05:42:28.535Z,15.60
2022-11-07T05:44:55.026Z,15.60
2022-11-07T05:47:21.520Z,15.60
2022-11-07T05:49:48.004Z,15.60
2022-11-07T05:52:14.498Z,15.70
2022-11-07T05:54:40.974Z,15.70
2022-11-07T05:57:07.453Z,15.50
2022-11-07T05:59:33.947Z,15.60
2022-11-07T06:02:00.555Z,15.60
2022-11-07T06:04:27.103Z,15.50
2022-11-07T06:06:53.591Z,15.70
2022-11-07T06:09:20.066Z,15.70
2022-11-07T06:11:46.553Z,15.70
2022-11-07T06:14:13.019Z,15.60
2022-11-07T06:16:39.511Z,15.60
2022-11-07T06:19:06.000Z,15.70
2022-11-07T06:21:32.475Z,15.60
2022-11-07T06:23:58.940Z,15.60
2022-11-07T06:26:25.432Z,15.60
2022-11-07T06:28:51.895Z,15.70
2022-11-07T06:31:18.362Z,15.60
2022-11-07T06:33:44.838Z,15.60
2022-11-07T06:36:11.348Z,15.50
2022-11-07T06:38:37.832Z,15.60
2022-11-07T06:41:04.304Z,15.60
2022-11-07T06:43:33.740Z,15.70
2022-11-07T06:46:00.430Z,15.70
2022-11-07T06:48:26.907Z,15.50
2022-11-07T06:50:53.398Z,15.60
2022-11-07T06:53:20.109Z,15.50
2022-11-07T06:55:46.717Z,15.70
2022-11-07T06:58:13.210Z,15.60
2022-11-07T07:00:39.725Z,15.60
2022-11-07T07:03:06.347Z,15.60
2022-11-07T07:05:32.941Z,15.70
2022-11-07T07:07:59.409Z,15.70
2022-11-07T07:10:25.879Z,15.60
2022-11-07T07:12:52.350Z,15.50
2022-11-07T07:15:18.843Z,15.50
2022-11-07T07:17:45.318Z,15.60
2022-11-07T07:20:11.791Z,15.70
2022-11-07T07:22:38.253Z,15.60
2022-11-07T07:25:04.749Z,15.70
2022-11-07T07:27:31.231Z,15.50
2022-11-07T07:29:57.709Z,15.70
2022-11-07T07:32:24.190Z,15.70
2022-11-07T07:34:50.678Z,15.60
2022-11-07T07:37:17.154Z,15.70
2022-11-07T07:39:43.637Z,15.60
2022-11-07T07:42:10.113Z,15.60
2022-11-07T07:44:36.593Z,15.70
2022-11-07T07:47:07.056Z,15.70
2022-11-07T07:49:36.527Z,15.70
2022-11-07T07:52:03.026Z,15.70
2022-11-07T07:54:29.517Z,15.80
2022-11-07T07:56:56.015Z,15.70
2022-11-07T07:59:22.499Z,15.70
2022-11-07T08:01:55.219Z,15.60
2022-11-07T08:04:23.203Z,15.50
2022-11-07T08:06:49.695Z,15.50
2022-11-07T08:09:16.155Z,15.60
2022-11-07T08:11:42.634Z,15.60
2022-11-07T08:14:09.129Z,15.70
2022-11-07T08:16:35.593Z,15.70
2022-11-07T08:19:02.058Z,15.70
2022-11-07T08:21:28.545Z,15.70
2022-11-07T08:23:55.012Z,15.60
2022-11-07T08:26:21.502Z,15.70
2022-11-07T08:28:47.998Z,15.70
2022-11-07T08:31:14.484Z,15.70
2022-11-07T08:33:40.998Z,15.70
2022-11-07T08:36:07.573Z,15.60
2022-11-07T08:38:34.044Z,15.70
2022-11-07T08:41:00.544Z,15.80
2022-11-07T08:43:27.031Z,15.70
2022-11-07T08:45:53.563Z,15.70
2022-11-07T08:48:20.056Z,15.80
2022-11-07T08:50:46.561Z,15.80
2022-11-07T08:53:13.042Z,15.80
2022-11-07T08:55:39.574Z,15.70
2022-11-07T08:58:06.067Z,15.70
2022-11-07T09:00:32.566Z,15.70
2022-11-07T09:05:45.582Z,15.80
2022-11-07T09:08:12.051Z,15.70
2022-11-07T09:10:38.541Z,15.80
2022-11-07T09:13:05.025Z,15.80
2022-11-07T09:15:31.519Z,15.80
2022-11-07T09:17:58.034Z,15.80
2022-11-07T09:20:24.509Z,15.70
2022-11-07T09:22:50.999Z,15.80
2022-11-07T09:25:17.759Z,15.70
2022-11-07T09:27:44.297Z,15.80
2022-11-07T09:30:10.793Z,15.70
2022-11-07T09:32:45.888Z,15.70
2022-11-07T09:35:12.580Z,15.70
2022-11-07T09:37:39.071Z,15.70
2022-11-07T09:40:05.550Z,15.80
2022-11-07T09:42:32.027Z,15.90
2022-11-07T09:44:58.498Z,15.90
2022-11-07T09:47:24.969Z,15.90
2022-11-07T09:49:51.449Z,15.80
2022-11-07T09:52:17.945Z,15.80
2022-11-07T09:54:46.749Z,15.90
2022-11-07T09:57:14.388Z,15.80
2022-11-07T09:59:41.320Z,15.90
2022-11-07T10:02:07.836Z,15.90
2022-11-07T10:04:34.341Z,15.90
2022-11-07T10:07:00.841Z,15.90
2022-11-07T10:09:27.302Z,15.90
2022-11-07T10:11:53.789Z,16.00
2022-11-07T10:14:20.287Z,15.90
2022-11-07T10:16:46.791Z,15.90
2022-11-07T10:19:13.271Z,15.90
2022-11-07T10:21:39.796Z,15.90
2022-11-07T10:24:06.267Z,15.90
2022-11-07T10:26:32.758Z,15.90
2022-11-07T10:28:59.252Z,15.90
2022-11-07T10:31:25.764Z,15.80
2022-11-07T10:33:52.238Z,15.80
2022-11-07T10:36:18.733Z,15.80
2022-11-07T10:38:45.445Z,15.80
2022-11-07T10:41:11.921Z,15.80
2022-11-07T10:43:39.517Z,15.80
2022-11-07T10:46:06.012Z,15.90
2022-11-07T10:48:32.490Z,15.90
2022-11-07T10:50:58.982Z,15.90
2022-11-07T10:53:25.475Z,15.70
2022-11-07T10:55:51.953Z,15.90
2022-11-07T10:58:18.520Z,15.80
2022-11-07T11:00:45.149Z,15.90
2022-11-07T11:03:11.644Z,15.80
2022-11-07T11:05:38.109Z,16.00
2022-11-07T11:08:04.593Z,15.90
2022-11-07T11:10:31.089Z,15.90
2022-11-07T11:12:57.596Z,15.90
2022-11-07T11:15:24.101Z,15.90
2022-11-07T11:17:50.590Z,16.00
2022-11-07T11:20:17.101Z,15.90
2022-11-07T11:22:43.591Z,15.90
2022-11-07T11:25:10.062Z,15.90
2022-11-07T11:27:36.544Z,15.90
2022-11-07T11:30:03.029Z,16.00
2022-11-07T11:32:29.463Z,16.00
2022-11-07T11:34:55.930Z,16.00
2022-11-07T11:37:22.417Z,15.90
2022-11-07T11:39:48.883Z,15.90
2022-11-07T11:42:15.370Z,15.90
2022-11-07T11:44:41.862Z,15.80
2022-11-07T11:47:08.351Z,15.90
2022-11-07T11:49:34.826Z,16.00
2022-11-07T11:52:01.317Z,16.00
2022-11-07T11:54:27.802Z,15.90
2022-11-07T11:56:54.283Z,16.00
2022-11-07T11:59:20.747Z,16.10
2022-11-07T12:01:47.279Z,16.10
2022-11-07T12:04:13.814Z,16.00
2022-11-07T12:06:40.301Z,16.00
2022-11-07T12:09:06.771Z,16.10
2022-11-07T12:11:33.294Z,16.10
2022-11-07T12:13:59.766Z,16.00
2022-11-07T12:16:26.261Z,16.00
2022-11-07T12:18:52.735Z,16.00
2022-11-07T12:21:19.223Z,15.90
2022-11-07T12:23:45.752Z,15.90
2022-11-07T12:26:12.247Z,16.00
2022-11-07T12:28:38.739Z,15.90
2022-11-07T12:31:05.249Z,16.10
2022-11-07T12:33:31.725Z,16.00
2022-11-07T12:35:58.218Z,16.10
2022-11-07T12:38:27.733Z,16.10
2022-11-07T12:40:54.204Z,16.10
2022-11-07T12:43:20.681Z,16.00
2022-11-07T12:45:47.206Z,16.10
2022-11-07T12:48:13.875Z,16.20
2022-11-07T12:50:40.378Z,16.30
2022-11-07T12:53:06.864Z,16.30
2022-11-07T12:55:33.353Z,16.30
2022-11-07T12:57:59.841Z,16.30
2022-11-07T13:00:29.983Z,16.30
2022-11-07T13:02:56.848Z,16.20
2022-11-07T13:05:23.346Z,16.30
2022-11-07T13:07:49.838Z,16.20
2022-11-07T13:10:16.351Z,16.40
2022-11-07T13:12:42.828Z,16.40
2022-11-07T13:15:09.315Z,16.40
2022-11-07T13:17:35.803Z,16.30
2022-11-07T13:20:02.331Z,16.20
2022-11-07T13:22:28.828Z,16.30
2022-11-07T13:24:55.383Z,16.30
2022-11-07T13:27:21.892Z,16.30
2022-11-07T13:29:48.355Z,16.30
2022-11-07T13:32:14.855Z,16.30
2022-11-07T13:34:41.321Z,16.30
2022-11-07T13:37:07.792Z,16.30
2022-11-07T13:39:34.266Z,16.20
2022-11-07T13:42:00.754Z,16.30
2022-11-07T13:44:27.247Z,16.40
2022-11-07T13:46:53.747Z,16.40
2022-11-07T13:49:20.230Z,16.30
2022-11-07T13:51:46.726Z,16.30
2022-11-07T13:54:13.214Z,16.30
2022-11-07T13:56:39.707Z,16.30
2022-11-07T13:59:06.185Z,16.30
2022-11-07T14:01:32.774Z,16.30
2022-11-07T14:03:59.389Z,16.30
2022-11-07T14:06:25.870Z,16.30
2022-11-07T14:08:52.338Z,16.40
2022-11-07T14:11:18.828Z,16.30
2022-11-07T14:13:45.319Z,16.30
2022-11-07T14:16:11.810Z,16.20
2022-11-07T14:18:38.284Z,16.20
2022-11-07T14:21:04.779Z,16.30
2022-11-07T14:23:31.260Z,16.30
2022-11-07T14:25:57.755Z,16.30
2022-11-07T14:28:24.243Z,16.30
2022-11-07T14:30:50.738Z,16.40
2022-11-07T14:33:17.210Z,16.40
2022-11-07T14:35:43.709Z,16.40
2022-11-07T14:38:10.285Z,16.40
2022-11-07T14:40:36.914Z,16.40
2022-11-07T14:43:03.397Z,16.40
2022-11-07T14:46:05.687Z,16.40
2022-11-07T14:48:16.703Z,16.40
2022-11-07T14:50:43.490Z,16.50
2022-11-07T14:53:09.964Z,16.40
2022-11-07T14:55:36.467Z,16.40
2022-11-07T14:58:02.948Z,16.40
2022-11-07T15:00:29.443Z,16.40
2022-11-07T15:02:55.984Z,16.40
2022-11-07T15:05:22.564Z,16.50
2022-11-07T15:07:49.049Z,16.50
2022-11-07T15:10:19.345Z,16.40
2022-11-07T15:12:48.469Z,16.50
2022-11-07T15:15:14.965Z,16.40
2022-11-07T15:17:41.440Z,16.50
2022-11-07T15:20:07.964Z,16.50
2022-11-07T15:22:34.450Z,16.60
2022-11-07T15:25:00.935Z,16.50
2022-11-07T15:27:27.421Z,16.40
2022-11-07T15:29:53.904Z,16.40
2022-11-07T15:32:20.377Z,16.50
2022-11-07T15:35:07.913Z,16.50
2022-11-07T15:37:33.326Z,16.40
2022-11-07T15:39:59.859Z,16.50
2022-11-07T15:42:26.390Z,16.50
2022-11-07T15:44:52.890Z,16.40
2022-11-07T15:47:19.383Z,16.50
2022-11-07T15:49:45.894Z,16.50
2022-11-07T15:52:12.380Z,16.50
2022-11-07T15:54:38.857Z,16.50
2022-11-07T15:57:05.338Z,16.50
2022-11-07T15:59:31.828Z,16.40
2022-11-07T16:01:58.523Z,16.40
2022-11-07T16:04:25.153Z,16.40
2022-11-07T16:06:51.643Z,16.50
2022-11-07T16:09:18.128Z,16.40
2022-11-07T16:11:44.616Z,16.40
2022-11-07T16:14:38.047Z,16.50
2022-11-07T16:16:57.559Z,16.50
2022-11-07T16:19:24.321Z,16.40
2022-11-07T16:21:50.825Z,16.40
2022-11-07T16:24:17.286Z,16.40
2022-11-07T16:26:43.774Z,16.40
2022-11-07T16:29:10.266Z,16.40
2022-11-07T16:31:36.768Z,16.40
2022-11-07T16:34:03.253Z,16.40
2022-11-07T16:36:29.754Z,16.50
2022-11-07T16:38:56.234Z,16.40
2022-11-07T16:41:22.722Z,16.40
2022-11-07T16:43:49.200Z,16.50
2022-11-07T16:46:15.688Z,16.40
2022-11-07T16:48:42.168Z,16.50
2022-11-07T16:51:08.652Z,16.40
2022-11-07T16:53:35.140Z,16.50
2022-11-07T16:56:01.633Z,16.40
2022-11-07T16:58:28.120Z,16.50
2022-11-07T17:00:54.619Z,16.50
2022-11-07T17:03:21.106Z,16.50
2022-11-07T17:05:47.599Z,16.40
2022-11-07T17:08:14.320Z,16.40
2022-11-07T17:10:41.008Z,16.50
2022-11-07T17:13:07.499Z,16.50
2022-11-07T17:15:33.995Z,16.50
2022-11-07T17:18:04.612Z,16.50
2022-11-07T17:20:50.334Z,16.40
2022-11-07T17:23:18.011Z,16.50
2022-11-07T17:25:44.493Z,16.50
2022-11-07T17:28:10.967Z,16.50
2022-11-07T17:30:37.458Z,16.50
2022-11-07T17:33:03.942Z,16.50
2022-11-07T17:35:32.697Z,16.40
2022-11-07T17:37:59.539Z,16.30
2022-11-07T17:40:26.035Z,16.40
2022-11-07T17:42:52.514Z,16.40
2022-11-07T17:45:19.025Z,16.50
2022-11-07T17:47:45.492Z,16.50
2022-11-07T17:50:11.995Z,16.40
2022-11-07T17:52:38.481Z,16.40
2022-11-07T17:55:05.013Z,16.40
2022-11-07T17:57:31.505Z,16.50
2022-11-07T17:59:57.980Z,16.50
2022-11-07T18:02:24.595Z,16.50
2022-11-07T18:04:51.187Z,16.50
2022-11-07T18:07:17.663Z,16.60
2022-11-07T18:09:44.136Z,16.60
2022-11-07T18:12:10.602Z,16.50
2022-11-07T18:14:37.072Z,16.40
2022-11-07T18:17:03.671Z,16.40
2022-11-07T18:19:30.193Z,16.50
2022-11-07T18:21:56.690Z,16.60
2022-11-07T18:24:23.172Z,16.60
2022-11-07T18:26:49.649Z,16.60
2022-11-07T18:29:16.105Z,16.60
2022-11-07T18:31:42.565Z,16.50
2022-11-07T18:34:09.060Z,16.50
2022-11-07T18:36:35.549Z,16.50
2022-11-07T18:39:02.043Z,16.50
2022-11-07T18:41:28.533Z,16.50
2022-11-07T18:43:55.020Z,16.40
2022-11-07T18:46:21.492Z,16.40
2022-11-07T18:48:47.968Z,16.30
2022-11-07T18:51:14.444Z,16.50
2022-11-07T18:53:40.919Z,16.50
2022-11-07T18:56:07.400Z,16.50
2022-11-07T18:58:33.874Z,16.50
2022-11-07T19:01:00.423Z,16.40
2022-11-07T19:03:26.955Z,16.50
2022-11-07T19:05:53.446Z,16.50
2022-11-07T19:08:19.912Z,16.40
2022-11-07T19:10:46.393Z,16.50
2022-11-07T19:13:12.861Z,16.50
2022-11-07T19:15:39.328Z,16.50
2022-11-07T19:18:05.819Z,16.40
2022-11-07T19:20:32.309Z,16.50
2022-11-07T19:22:58.775Z,16.40
2022-11-07T19:25:25.260Z,16.40
2022-11-07T19:27:51.747Z,16.40
2022-11-07T19:30:18.282Z,16.40
2022-11-07T19:32:44.786Z,16.40
2022-11-07T19:35:11.284Z,16.40
2022-11-07T19:37:37.775Z,16.40
2022-11-07T19:40:04.273Z,16.40
2022-11-07T19:42:30.744Z,16.50
2022-11-07T19:44:57.221Z,16.50
2022-11-07T19:47:23.715Z,16.40
2022-11-07T19:49:50.179Z,16.40
2022-11-07T19:52:16.677Z,16.50
2022-11-07T19:54:43.157Z,16.50
2022-11-07T19:57:09.639Z,16.50
2022-11-07T19:59:36.104Z,16.50
2022-11-07T20:02:31.003Z,16.50
2022-11-07T20:04:49.061Z,16.40
2022-11-07T20:07:15.574Z,16.40
2022-11-07T20:09:42.066Z,16.30
2022-11-07T20:12:08.544Z,16.40
2022-11-07T20:14:35.026Z,16.30
2022-11-07T20:17:01.516Z,16.50
2022-11-07T20:19:27.986Z,16.50
2022-11-07T20:21:54.464Z,16.40
2022-11-07T20:24:20.935Z,16.40
2022-11-07T20:26:47.428Z,16.30
2022-11-07T20:29:13.919Z,16.40
2022-11-07T20:31:40.400Z,16.40
2022-11-07T20:34:06.902Z,16.40
2022-11-07T20:36:33.406Z,16.40
2022-11-07T20:38:59.890Z,16.40
2022-11-07T20:41:26.375Z,16.30
2022-11-07T20:43:52.844Z,16.40
2022-11-07T20:46:19.317Z,16.40
2022-11-07T20:48:46.132Z,16.50
2022-11-07T20:51:12.609Z,16.50
2022-11-07T20:53:39.107Z,16.40
2022-11-07T20:56:05.614Z,16.40
2022-11-07T20:58:32.110Z,16.30
2022-11-07T21:00:58.674Z,16.50
2022-11-07T21:03:25.195Z,16.60
2022-11-07T21:05:51.675Z,16.50
2022-11-07T21:08:18.144Z,16.50
2022-11-07T21:10:44.624Z,16.60
2022-11-07T21:13:11.107Z,16.50
2022-11-07T21:15:37.593Z,16.50
2022-11-07T21:18:04.058Z,16.50
2022-11-07T21:20:30.521Z,16.50
2022-11-07T21:22:56.979Z,16.40
2022-11-07T21:25:23.452Z,16.30
2022-11-07T21:27:49.931Z,16.30
2022-11-07T21:30:16.443Z,16.30
2022-11-07T21:32:47.986Z,16.50
2022-11-07T21:35:14.595Z,16.50
2022-11-07T21:37:41.089Z,16.50
2022-11-07T21:40:07.602Z,16.40
2022-11-07T21:42:34.048Z,16.30
2022-11-07T21:45:00.540Z,16.40
2022-11-07T21:47:27.020Z,16.40
2022-11-07T21:49:53.495Z,16.40
2022-11-07T21:52:19.989Z,16.40
2022-11-07T21:54:46.467Z,16.40
2022-11-07T21:57:12.965Z,16.40
2022-11-07T21:59:39.448Z,16.40
2022-11-07T22:02:05.957Z,16.50
2022-11-07T22:04:32.463Z,16.40
2022-11-07T22:06:58.949Z,16.30
2022-11-07T22:09:25.427Z,16.40
2022-11-07T22:11:51.918Z,16.30
2022-11-07T22:14:18.404Z,16.40
2022-11-07T22:16:44.944Z,16.40
2022-11-07T22:19:12.891Z,16.30
2022-11-07T22:21:39.594Z,16.40
2022-11-07T22:24:06.072Z,16.50
2022-11-07T22:26:32.557Z,16.40
2022-11-07T22:28:59.017Z,16.40
2022-11-07T22:31:25.500Z,16.40
2022-11-07T22:33:51.986Z,16.40
2022-11-07T22:36:18.468Z,16.40
2022-11-07T22:38:44.961Z,16.40
2022-11-07T22:41:11.465Z,16.50
2022-11-07T22:43:37.963Z,16.30
2022-11-07T22:46:04.457Z,16.30
2022-11-07T22:48:30.941Z,16.40
2022-11-07T22:50:57.436Z,16.40
2022-11-07T22:53:23.901Z,16.40
2022-11-07T22:55:50.386Z,16.50
2022-11-07T22:58:17.038Z,16.50
2022-11-07T23:00:43.716Z,16.50
2022-11-07T23:03:10.252Z,16.50
2022-11-07T23:05:36.797Z,16.40
2022-11-07T23:08:03.278Z,16.30
2022-11-07T23:10:29.788Z,16.40
2022-11-07T23:12:56.255Z,16.50
2022-11-07T23:15:22.751Z,16.40
2022-11-07T23:17:49.215Z,16.30
2022-11-07T23:20:15.735Z,16.40
2022-11-07T23:22:42.213Z,16.40
2022-11-07T23:25:08.711Z,16.50
2022-11-07T23:27:35.204Z,16.50
2022-11-07T23:30:01.684Z,16.50
2022-11-07T23:32:28.174Z,16.40
2022-11-07T23:34:54.678Z,16.50
2022-11-07T23:37:21.170Z,16.50
2022-11-07T23:39:47.662Z,16.60
2022-11-07T23:42:14.141Z,16.50
2022-11-07T23:44:40.652Z,16.50
2022-11-07T23:47:07.145Z,16.50
2022-11-07T23:49:33.614Z,16.50
2022-11-07T23:52:00.113Z,16.50
2022-11-07T23:54:26.613Z,16.40
2022-11-07T23:56:53.111Z,16.50
2022-11-07T23:59:19.583Z,16.50
